createdAt,value
2018-03-01T00:00:05.427Z,96.10
2018-03-01T00:02:33.117Z,96.10
2018-03-01T00:05:01.319Z,96.00
2018-03-01T00:07:28.959Z,95.80
2018-03-01T00:09:56.589Z,95.80
2018-03-01T00:12:24.184Z,96.00
2018-03-01T00:14:51.824Z,95.90
2018-03-01T00:17:19.463Z,96.00
2018-03-01T00:19:47.824Z,96.20
2018-03-01T00:22:27.382Z,96.20
2018-03-01T00:24:55.022Z,95.70
2018-03-01T00:27:22.648Z,95.80
2018-03-01T00:29:50.270Z,96.10
2018-03-01T00:32:18.682Z,95.70
2018-03-01T00:34:46.340Z,95.70
2018-03-01T00:37:13.974Z,95.90
2018-03-01T00:39:41.633Z,96.20
2018-03-01T00:42:09.234Z,96.40
2018-03-01T00:44:36.857Z,96.20
2018-03-01T00:47:04.537Z,96.40
2018-03-01T00:49:32.159Z,96.30
2018-03-01T00:51:59.793Z,96.30
2018-03-01T00:54:27.458Z,96.30
2018-03-01T00:56:55.852Z,96.80
2018-03-01T00:59:24.259Z,96.50
2018-03-01T01:01:51.890Z,96.50
2018-03-01T01:04:20.849Z,96.50
2018-03-01T01:06:48.454Z,96.50
2018-03-01T01:09:16.464Z,96.30
2018-03-01T01:11:44.156Z,96.50
2018-03-01T01:14:11.809Z,96.40
2018-03-01T01:16:39.447Z,96.30
2018-03-01T01:19:07.098Z,96.20
2018-03-01T01:21:35.506Z,96.60
2018-03-01T01:24:03.150Z,96.60
2018-03-01T01:26:31.553Z,96.60
2018-03-01T01:28:59.195Z,96.60
2018-03-01T01:31:27.898Z,96.90
2018-03-01T01:33:55.546Z,96.80
2018-03-01T01:36:23.925Z,97.30
2018-03-01T01:38:52.390Z,97.20
2018-03-01T01:41:20.036Z,97.20
2018-03-01T01:43:47.692Z,97.60
2018-03-01T01:46:15.291Z,97.60
2018-03-01T01:48:43.740Z,97.70
2018-03-01T01:51:11.359Z,97.70
2018-03-01T01:53:39.799Z,98.10
2018-03-01T01:56:07.673Z,98.10
2018-03-01T01:58:35.330Z,98.30
2018-03-01T02:01:03.002Z,98.30
2018-03-01T02:03:30.966Z,98.40
2018-03-01T02:05:58.630Z,98.40
2018-03-01T02:08:26.281Z,98.50
2018-03-01T02:10:53.953Z,98.70
2018-03-01T02:13:21.553Z,98.80
2018-03-01T02:15:49.294Z,99.20
2018-03-01T02:18:16.910Z,99.10
2018-03-01T02:20:44.845Z,99.20
2018-03-01T02:23:12.478Z,99.60
2018-03-01T02:25:40.886Z,99.50
2018-03-01T02:28:08.491Z,99.50
2018-03-01T02:30:36.810Z,99.70
2018-03-01T02:33:05.234Z,99.90
2018-03-01T02:35:32.878Z,99.90
2018-03-01T02:38:00.493Z,99.90
2018-03-01T02:40:28.137Z,99.90
2018-03-01T02:42:55.787Z,99.90
2018-03-01T02:45:23.413Z,99.90
2018-03-01T02:47:52.641Z,99.90
2018-03-01T02:50:20.268Z,99.90
2018-03-01T02:52:48.195Z,99.90
2018-03-01T02:55:15.851Z,99.90
2018-03-01T02:57:43.492Z,99.90
2018-03-01T03:00:11.901Z,99.90
2018-03-01T03:02:39.528Z,99.90
2018-03-01T03:05:07.126Z,99.90
2018-03-01T03:07:34.777Z,99.90
2018-03-01T03:10:03.153Z,99.90
2018-03-01T03:12:30.814Z,99.90
2018-03-01T03:14:58.756Z,99.90
2018-03-01T03:17:26.344Z,99.90
2018-03-01T03:19:54.008Z,99.90
2018-03-01T03:22:21.670Z,99.90
2018-03-01T03:24:49.320Z,99.90
2018-03-01T03:27:16.992Z,99.90
2018-03-01T03:29:44.626Z,99.90
2018-03-01T03:32:12.275Z,99.90
2018-03-01T03:34:41.215Z,99.90
2018-03-01T03:37:08.891Z,99.90
2018-03-01T03:39:36.539Z,99.90
2018-03-01T03:42:04.171Z,99.90
2018-03-01T03:44:32.558Z,99.90
2018-03-01T03:47:00.240Z,99.90
2018-03-01T03:49:27.895Z,99.90
2018-03-01T03:51:56.268Z,99.90
2018-03-01T03:54:23.930Z,99.90
2018-03-01T03:56:52.333Z,99.90
2018-03-01T03:59:19.950Z,99.90
2018-03-01T04:01:47.630Z,99.90
2018-03-01T04:04:16.031Z,99.90
2018-03-01T04:06:44.693Z,99.90
2018-03-01T04:09:12.340Z,99.90
2018-03-01T04:11:40.006Z,99.90
2018-03-01T04:14:07.893Z,99.90
2018-03-01T04:16:36.278Z,99.90
2018-03-01T04:19:04.888Z,99.90
2018-03-01T04:21:33.312Z,99.90
2018-03-01T04:24:00.936Z,99.90
2018-03-01T04:26:29.354Z,99.90
2018-03-01T04:28:57.024Z,99.90
2018-03-01T04:31:25.422Z,99.90
2018-03-01T04:33:53.863Z,99.90
2018-03-01T04:36:22.355Z,99.90
2018-03-01T04:38:50.731Z,99.90
2018-03-01T04:41:18.395Z,99.90
2018-03-01T04:43:46.007Z,99.90
2018-03-01T04:46:13.634Z,99.90
2018-03-01T04:48:42.408Z,99.90
2018-03-01T04:51:10.039Z,99.90
2018-03-01T04:53:37.736Z,99.90
2018-03-01T04:56:05.375Z,99.90
2018-03-01T04:58:33.337Z,99.90
2018-03-01T05:01:01.305Z,99.90
2018-03-01T05:03:28.909Z,99.90
2018-03-01T05:05:56.581Z,99.90
2018-03-01T05:08:24.222Z,99.90
2018-03-01T05:10:51.876Z,99.90
2018-03-01T05:13:19.494Z,99.90
2018-03-01T05:15:47.141Z,99.90
2018-03-01T05:18:14.798Z,99.90
2018-03-01T05:20:42.431Z,99.90
2018-03-01T05:23:10.064Z,99.90
2018-03-01T05:25:38.469Z,99.90
2018-03-01T05:28:06.122Z,99.90
2018-03-01T05:30:34.521Z,99.90
2018-03-01T05:33:02.174Z,99.90
2018-03-01T05:35:30.562Z,99.90
2018-03-01T05:37:59.361Z,99.90
2018-03-01T05:40:27.017Z,99.90
2018-03-01T05:42:56.287Z,99.90
2018-03-01T05:45:23.955Z,99.90
2018-03-01T05:47:51.558Z,99.90
2018-03-01T05:50:19.980Z,99.90
2018-03-01T05:52:47.625Z,99.90
2018-03-01T05:55:15.288Z,99.90
2018-03-01T05:57:42.971Z,99.90
2018-03-01T06:00:11.696Z,99.90
2018-03-01T06:02:39.371Z,99.90
2018-03-01T06:05:07.164Z,99.90
2018-03-01T06:07:35.588Z,99.90
2018-03-01T06:10:03.908Z,99.90
2018-03-01T06:12:31.605Z,99.90
2018-03-01T06:14:59.988Z,99.90
2018-03-01T06:17:28.459Z,99.90
2018-03-01T06:19:56.080Z,99.90
2018-03-01T06:22:23.785Z,99.90
2018-03-01T06:24:51.450Z,99.90
2018-03-01T06:27:19.099Z,99.90
2018-03-01T06:29:46.760Z,99.90
2018-03-01T06:32:14.437Z,99.90
2018-03-01T06:34:42.091Z,99.90
2018-03-01T06:37:10.056Z,99.90
2018-03-01T06:39:37.731Z,99.90
2018-03-01T06:42:05.409Z,99.90
2018-03-01T06:44:33.148Z,99.90
2018-03-01T06:47:00.840Z,99.90
2018-03-01T06:49:28.499Z,99.90
2018-03-01T06:51:57.180Z,99.90
2018-03-01T06:54:24.863Z,99.90
2018-03-01T06:56:53.444Z,99.90
2018-03-01T06:59:21.106Z,99.90
2018-03-01T07:01:48.887Z,99.90
2018-03-01T07:04:16.545Z,99.90
2018-03-01T07:06:44.188Z,99.90
2018-03-01T07:09:11.842Z,99.90
2018-03-01T07:11:40.496Z,99.90
2018-03-01T07:14:08.532Z,99.90
2018-03-01T07:16:36.186Z,99.90
2018-03-01T07:19:03.830Z,99.90
2018-03-01T07:21:32.280Z,99.90
2018-03-01T07:24:00.218Z,99.90
2018-03-01T07:26:27.910Z,99.90
2018-03-01T07:28:55.786Z,99.60
2018-03-01T07:31:23.770Z,99.80
2018-03-01T07:33:51.402Z,99.20
2018-03-01T07:36:19.013Z,99.70
2018-03-01T07:38:47.474Z,98.60
2018-03-01T07:41:16.307Z,98.60
2018-03-01T07:43:44.588Z,98.50
2018-03-01T07:46:12.216Z,98.80
2018-03-01T07:48:39.826Z,98.30
2018-03-01T07:51:08.222Z,97.80
2018-03-01T07:53:35.869Z,97.80
2018-03-01T07:56:03.505Z,97.50
2018-03-01T07:58:31.164Z,97.40
2018-03-01T08:00:58.784Z,97.00
2018-03-01T08:03:27.209Z,97.00
2018-03-01T08:05:54.824Z,97.00
2018-03-01T08:08:22.455Z,96.40
2018-03-01T08:10:50.071Z,96.70
2018-03-01T08:13:18.463Z,95.80
2018-03-01T08:15:46.851Z,95.90
2018-03-01T08:18:14.853Z,95.90
2018-03-01T08:20:42.832Z,95.20
2018-03-01T08:23:10.484Z,94.90
2018-03-01T08:25:39.051Z,94.00
2018-03-01T08:28:06.749Z,94.00
2018-03-01T08:30:34.398Z,93.90
2018-03-01T08:33:02.623Z,93.50
2018-03-01T08:35:30.595Z,93.50
2018-03-01T08:37:58.245Z,93.10
2018-03-01T08:40:25.961Z,93.30
2018-03-01T08:42:54.427Z,92.90
2018-03-01T08:45:22.097Z,92.90
2018-03-01T08:47:49.727Z,92.80
2018-03-01T08:50:17.366Z,92.60
2018-03-01T08:52:45.012Z,90.90
2018-03-01T08:55:14.038Z,91.70
2018-03-01T08:57:42.079Z,91.00
2018-03-01T09:00:10.455Z,90.80
2018-03-01T09:02:38.867Z,90.40
2018-03-01T09:05:06.544Z,90.40
2018-03-01T09:07:34.196Z,90.60
2018-03-01T09:10:02.638Z,90.70
2018-03-01T09:12:30.310Z,90.60
2018-03-01T09:14:57.972Z,90.30
2018-03-01T09:17:25.688Z,90.00
2018-03-01T09:19:53.287Z,89.70
2018-03-01T09:22:20.932Z,88.60
2018-03-01T09:24:48.633Z,89.20
2018-03-01T09:27:16.565Z,89.90
2018-03-01T09:29:44.222Z,90.20
2018-03-01T09:32:11.891Z,87.20
2018-03-01T09:34:39.525Z,87.30
2018-03-01T09:37:07.984Z,86.40
2018-03-01T09:39:35.639Z,86.20
2018-03-01T09:42:03.296Z,86.60
2018-03-01T09:44:31.618Z,86.90
2018-03-01T09:46:59.264Z,84.20
2018-03-01T09:49:26.933Z,85.00
2018-03-01T09:51:55.209Z,82.90
2018-03-01T09:54:22.836Z,85.40
2018-03-01T09:56:51.739Z,84.90
2018-03-01T09:59:19.751Z,84.90
2018-03-01T10:01:47.388Z,82.30
2018-03-01T10:04:15.072Z,82.60
2018-03-01T10:06:42.699Z,81.30
2018-03-01T10:09:11.227Z,81.10
2018-03-01T10:11:38.870Z,81.00
2018-03-01T10:14:06.958Z,83.30
2018-03-01T10:16:34.596Z,81.70
2018-03-01T10:19:03.037Z,76.30
2018-03-01T10:21:30.704Z,76.20
2018-03-01T10:23:58.369Z,78.10
2018-03-01T10:26:26.559Z,79.60
2018-03-01T10:28:54.268Z,79.10
2018-03-01T10:31:21.910Z,78.00
2018-03-01T10:33:49.593Z,73.60
2018-03-01T10:36:18.010Z,78.20
2018-03-01T10:38:45.610Z,78.30
2018-03-01T10:41:13.250Z,75.90
2018-03-01T10:43:41.679Z,76.20
2018-03-01T10:46:09.290Z,76.70
2018-03-01T10:48:37.855Z,72.00
2018-03-01T10:51:06.246Z,73.90
2018-03-01T10:53:33.875Z,74.20
2018-03-01T10:56:02.406Z,75.00
2018-03-01T10:58:30.587Z,72.90
2018-03-01T11:00:59.173Z,72.50
2018-03-01T11:03:26.768Z,66.10
2018-03-01T11:05:54.472Z,70.70
2018-03-01T11:08:22.102Z,64.70
2018-03-01T11:10:49.720Z,67.70
2018-03-01T11:13:17.368Z,64.60
2018-03-01T11:15:45.753Z,66.50
2018-03-01T11:18:13.394Z,66.50
2018-03-01T11:20:41.802Z,65.50
2018-03-01T11:23:09.506Z,66.00
2018-03-01T11:25:37.123Z,64.60
2018-03-01T11:28:04.755Z,62.80
2018-03-01T11:30:32.364Z,64.50
2018-03-01T11:33:00.023Z,66.50
2018-03-01T11:35:27.693Z,59.90
2018-03-01T11:37:55.299Z,62.50
2018-03-01T11:40:22.945Z,62.30
2018-03-01T11:42:51.367Z,62.30
2018-03-01T11:45:19.540Z,62.30
2018-03-01T11:47:47.204Z,61.20
2018-03-01T11:50:14.866Z,61.80
2018-03-01T11:52:42.500Z,61.80
2018-03-01T11:55:10.914Z,58.10
2018-03-01T11:57:38.537Z,58.10
2018-03-01T12:00:06.202Z,56.70
2018-03-01T12:02:33.862Z,58.30
2018-03-01T12:05:01.568Z,55.40
2018-03-01T12:07:29.191Z,59.20
2018-03-01T12:09:56.902Z,54.80
2018-03-01T12:12:25.328Z,57.20
2018-03-01T12:14:52.948Z,56.20
2018-03-01T12:17:21.330Z,60.90
2018-03-01T12:19:49.727Z,55.00
2018-03-01T12:22:18.129Z,56.60
2018-03-01T12:24:45.809Z,57.00
2018-03-01T12:27:13.450Z,55.60
2018-03-01T12:29:41.072Z,57.40
2018-03-01T12:32:08.706Z,58.00
2018-03-01T12:34:36.376Z,56.50
2018-03-01T12:37:03.972Z,56.90
2018-03-01T12:39:31.611Z,60.70
2018-03-01T12:41:59.288Z,60.20
2018-03-01T12:44:27.053Z,61.70
2018-03-01T12:46:54.743Z,62.60
2018-03-01T12:49:22.383Z,65.00
2018-03-01T12:51:50.681Z,63.30
2018-03-01T12:54:18.375Z,66.90
2018-03-01T12:56:46.668Z,68.00
2018-03-01T12:59:14.381Z,67.10
2018-03-01T13:01:42.084Z,68.00
2018-03-01T13:04:10.550Z,68.50
2018-03-01T13:06:40.211Z,68.30
2018-03-01T13:09:08.646Z,68.70
2018-03-01T13:11:36.301Z,68.70
2018-03-01T13:14:03.945Z,72.10
2018-03-01T13:16:31.599Z,71.70
2018-03-01T13:18:59.375Z,71.10
2018-03-01T13:21:27.025Z,70.70
2018-03-01T13:23:54.682Z,73.70
2018-03-01T13:26:23.104Z,72.30
2018-03-01T13:28:50.720Z,72.40
2018-03-01T13:31:20.182Z,73.60
2018-03-01T13:33:52.506Z,72.00
2018-03-01T13:36:20.155Z,72.60
2018-03-01T13:38:48.573Z,73.80
2018-03-01T13:41:17.519Z,74.80
2018-03-01T13:43:45.177Z,74.70
2018-03-01T13:46:12.805Z,73.80
2018-03-01T13:48:41.437Z,73.50
2018-03-01T13:51:09.377Z,75.00
2018-03-01T13:53:37.038Z,73.10
2018-03-01T13:56:04.737Z,73.30
2018-03-01T13:58:32.349Z,75.00
2018-03-01T14:01:00.719Z,75.10
2018-03-01T14:03:28.635Z,75.00
2018-03-01T14:06:16.695Z,75.00
2018-03-01T14:08:44.342Z,76.00
2018-03-01T14:11:11.954Z,75.70
2018-03-01T14:13:42.297Z,75.00
2018-03-01T14:16:09.917Z,75.10
2018-03-01T14:21:52.387Z,76.70
2018-03-01T14:24:21.923Z,76.70
2018-03-01T14:26:52.359Z,77.20
2018-03-01T14:29:24.592Z,76.70
2018-03-01T14:31:53.021Z,77.60
2018-03-01T14:34:21.604Z,77.50
2018-03-01T14:36:49.313Z,77.30
2018-03-01T14:39:17.830Z,76.80
2018-03-01T14:41:45.823Z,77.40
2018-03-01T14:44:13.433Z,78.00
2018-03-01T14:46:41.842Z,77.70
2018-03-01T14:49:09.467Z,77.70
2018-03-01T14:51:37.091Z,77.90
2018-03-01T14:54:04.727Z,78.10
2018-03-01T14:56:33.089Z,78.90
2018-03-01T14:59:01.478Z,79.50
2018-03-01T15:01:29.917Z,78.80
2018-03-01T15:03:57.555Z,78.80
2018-03-01T15:06:25.218Z,79.60
2018-03-01T15:08:52.868Z,79.10
2018-03-01T15:11:21.249Z,79.20
2018-03-01T15:13:49.740Z,78.80
2018-03-01T15:16:17.427Z,78.90
2018-03-01T15:18:45.124Z,79.90
2018-03-01T15:21:14.573Z,80.40
2018-03-01T15:23:43.542Z,79.90
2018-03-01T15:26:11.191Z,79.90
2018-03-01T15:28:38.854Z,80.20
2018-03-01T15:31:07.093Z,81.70
2018-03-01T15:33:35.539Z,80.50
2018-03-01T15:36:03.181Z,80.50
2018-03-01T15:38:31.239Z,80.50
2018-03-01T15:40:59.002Z,80.30
2018-03-01T15:43:26.660Z,80.70
2018-03-01T15:45:54.301Z,80.50
2018-03-01T15:48:22.090Z,80.90
2018-03-01T15:50:50.488Z,80.90
2018-03-01T15:53:18.120Z,80.90
2018-03-01T15:55:46.503Z,82.30
2018-03-01T15:58:14.169Z,81.40
2018-03-01T16:00:41.825Z,81.40
2018-03-01T16:03:09.873Z,81.00
2018-03-01T16:05:37.511Z,81.40
2018-03-01T16:08:05.185Z,81.60
2018-03-01T16:10:32.782Z,82.70
2018-03-01T16:13:00.441Z,83.20
2018-03-01T16:15:28.298Z,83.20
2018-03-01T16:17:55.948Z,83.60
2018-03-01T16:20:23.627Z,84.30
2018-03-01T16:22:51.272Z,83.90
2018-03-01T16:25:19.677Z,84.00
2018-03-01T16:27:47.365Z,83.90
2018-03-01T16:30:15.339Z,83.60
2018-03-01T16:32:43.068Z,83.80
2018-03-01T16:35:11.491Z,84.10
2018-03-01T16:37:39.116Z,84.00
2018-03-01T16:40:07.552Z,84.20
2018-03-01T16:42:35.182Z,84.00
2018-03-01T16:45:03.868Z,85.00
2018-03-01T16:47:32.263Z,85.00
2018-03-01T16:50:00.255Z,85.70
2018-03-01T16:52:27.897Z,85.30
2018-03-01T16:54:55.564Z,86.40
2018-03-01T16:57:23.209Z,87.20
2018-03-01T16:59:51.625Z,87.60
2018-03-01T17:02:19.508Z,87.20
2018-03-01T17:04:47.154Z,86.90
2018-03-01T17:07:15.242Z,86.90
2018-03-01T17:09:42.909Z,87.10
2018-03-01T17:12:12.279Z,87.70
2018-03-01T17:14:39.997Z,87.80
2018-03-01T17:17:07.672Z,88.50
2018-03-01T17:19:35.300Z,88.00
2018-03-01T17:22:04.559Z,88.40
2018-03-01T17:24:32.236Z,88.80
2018-03-01T17:26:59.884Z,88.40
2018-03-01T17:29:28.173Z,89.00
2018-03-01T17:31:55.853Z,89.20
2018-03-01T17:34:23.492Z,89.10
2018-03-01T17:36:51.181Z,89.20
2018-03-01T17:39:19.114Z,89.80
2018-03-01T17:41:47.532Z,89.80
2018-03-01T17:44:15.182Z,90.20
2018-03-01T17:46:42.875Z,90.20
2018-03-01T17:49:10.491Z,90.20
2018-03-01T17:51:38.179Z,90.40
2018-03-01T17:54:05.825Z,90.20
2018-03-01T17:56:33.464Z,90.20
2018-03-01T17:59:01.892Z,90.70
2018-03-01T18:01:29.541Z,90.40
2018-03-01T18:03:57.893Z,90.60
2018-03-01T18:06:25.516Z,90.40
2018-03-01T18:08:53.235Z,90.70
2018-03-01T18:11:20.903Z,90.50
2018-03-01T18:13:50.181Z,91.30
2018-03-01T18:16:18.605Z,91.30
2018-03-01T18:18:47.002Z,91.00
2018-03-01T18:21:14.617Z,91.00
2018-03-01T18:23:42.275Z,91.20
2018-03-01T18:26:09.971Z,91.20
2018-03-01T18:28:38.391Z,91.50
2018-03-01T18:31:06.019Z,91.40
2018-03-01T18:33:33.662Z,91.50
2018-03-01T18:36:01.302Z,91.90
2018-03-01T18:38:28.948Z,91.80
2018-03-01T18:40:57.300Z,91.90
2018-03-01T18:43:25.705Z,92.00
2018-03-01T18:45:53.364Z,91.90
2018-03-01T18:48:21.773Z,92.30
2018-03-01T18:50:49.716Z,92.30
2018-03-01T18:53:17.355Z,92.20
2018-03-01T18:55:44.994Z,92.00
2018-03-01T18:58:12.615Z,92.10
2018-03-01T19:00:41.022Z,92.20
2018-03-01T19:03:08.666Z,92.20
2018-03-01T19:05:37.059Z,92.40
2018-03-01T19:08:05.453Z,92.20
2018-03-01T19:10:33.098Z,92.20
2018-03-01T19:13:01.510Z,92.60
2018-03-01T19:15:29.176Z,92.60
2018-03-01T19:17:56.879Z,92.60
2018-03-01T19:20:24.512Z,92.70
2018-03-01T19:22:52.195Z,92.60
2018-03-01T19:25:19.831Z,92.70
2018-03-01T19:27:47.524Z,92.80
2018-03-01T19:30:15.243Z,92.80
2018-03-01T19:32:43.902Z,92.80
2018-03-01T19:35:11.541Z,92.80
2018-03-01T19:37:39.318Z,92.80
2018-03-01T19:40:06.964Z,92.90
2018-03-01T19:42:34.591Z,92.90
2018-03-01T19:45:08.494Z,92.90
2018-03-01T19:47:36.539Z,93.00
2018-03-01T19:50:04.187Z,92.70
2018-03-01T19:52:31.855Z,93.00
2018-03-01T19:55:00.333Z,93.00
2018-03-01T19:57:29.042Z,93.10
2018-03-01T19:59:56.662Z,93.50
2018-03-01T20:02:25.753Z,93.50
2018-03-01T20:04:53.466Z,93.40
2018-03-01T20:07:21.125Z,93.40
2018-03-01T20:09:48.758Z,93.30
2018-03-01T20:12:16.420Z,93.50
2018-03-01T20:14:44.028Z,93.60
2018-03-01T20:17:12.437Z,93.80
2018-03-01T20:19:40.784Z,93.80
2018-03-01T20:22:09.194Z,93.60
2018-03-01T20:24:37.903Z,93.60
2018-03-01T20:27:05.543Z,93.70
2018-03-01T20:29:34.857Z,94.00
2018-03-01T20:32:03.334Z,93.90
2018-03-01T20:34:31.733Z,93.70
2018-03-01T20:36:59.388Z,93.70
2018-03-01T20:39:27.126Z,93.70
2018-03-01T20:41:55.703Z,94.20
2018-03-01T20:44:23.358Z,93.80
2018-03-01T20:46:51.005Z,93.90
2018-03-01T20:49:19.596Z,94.00
2018-03-01T20:51:47.243Z,94.20
2018-03-01T20:54:15.047Z,94.10
2018-03-01T20:56:42.674Z,94.10
2018-03-01T20:59:10.281Z,94.40
2018-03-01T21:01:38.153Z,94.20
2018-03-01T21:04:05.984Z,94.30
2018-03-01T21:06:33.982Z,94.00
2018-03-01T21:09:01.593Z,94.20
2018-03-01T21:11:29.251Z,94.10
2018-03-01T21:13:56.877Z,94.30
2018-03-01T21:16:25.356Z,94.30
2018-03-01T21:18:52.965Z,94.20
2018-03-01T21:21:20.618Z,94.40
2018-03-01T21:23:48.686Z,94.50
2018-03-01T21:26:16.672Z,94.50
2018-03-01T21:28:44.326Z,94.60
2018-03-01T21:31:12.014Z,94.70
2018-03-01T21:33:39.675Z,94.80
2018-03-01T21:36:07.304Z,94.80
2018-03-01T21:38:34.926Z,94.90
2018-03-01T21:41:03.385Z,95.00
2018-03-01T21:43:31.045Z,94.90
2018-03-01T21:45:58.682Z,94.90
2018-03-01T21:48:27.086Z,94.90
2018-03-01T21:50:54.732Z,94.90
2018-03-01T21:53:22.404Z,95.00
2018-03-01T21:55:50.391Z,94.90
2018-03-01T21:58:18.015Z,95.20
2018-03-01T22:00:46.743Z,94.90
2018-03-01T22:03:14.399Z,95.00
2018-03-01T22:05:42.821Z,95.00
2018-03-01T22:08:10.492Z,95.00
2018-03-01T22:10:38.112Z,95.30
2018-03-01T22:13:06.494Z,95.40
2018-03-01T22:15:34.120Z,95.40
2018-03-01T22:18:01.764Z,95.30
2018-03-01T22:20:29.413Z,95.40
2018-03-01T22:22:57.946Z,95.70
2018-03-01T22:25:25.541Z,95.50
2018-03-01T22:27:53.943Z,95.40
2018-03-01T22:30:21.593Z,95.40
2018-03-01T22:32:49.977Z,95.90
2018-03-01T22:35:18.808Z,95.70
2018-03-01T22:37:46.424Z,95.70
2018-03-01T22:40:14.075Z,95.70
2018-03-01T22:42:42.501Z,96.10
2018-03-01T22:45:10.592Z,95.90
2018-03-01T22:47:38.207Z,95.80
2018-03-01T22:50:05.868Z,95.90
2018-03-01T22:52:33.714Z,96.10
2018-03-01T22:55:01.366Z,96.20
2018-03-01T22:57:29.596Z,95.80
2018-03-01T22:59:57.269Z,95.90
2018-03-01T23:02:26.625Z,96.10
2018-03-01T23:04:54.808Z,95.90
2018-03-01T23:07:22.543Z,95.90
2018-03-01T23:09:50.172Z,96.10
2018-03-01T23:12:17.812Z,96.20
2018-03-01T23:14:45.752Z,96.30
2018-03-01T23:17:13.417Z,96.50
2018-03-01T23:19:41.083Z,96.50
2018-03-01T23:22:08.951Z,96.40
2018-03-01T23:24:37.553Z,96.50
2018-03-01T23:27:05.176Z,96.50
2018-03-01T23:29:32.831Z,96.50
2018-03-01T23:32:00.975Z,96.60
2018-03-01T23:34:28.586Z,96.50
2018-03-01T23:36:56.179Z,96.60
2018-03-01T23:39:23.830Z,96.80
2018-03-01T23:41:51.446Z,96.70
2018-03-01T23:44:19.104Z,96.80
2018-03-01T23:46:46.735Z,96.80
2018-03-01T23:49:15.157Z,97.00
2018-03-01T23:51:42.831Z,97.00
2018-03-01T23:54:10.464Z,97.20
2018-03-01T23:56:39.362Z,97.00
2018-03-01T23:59:07.047Z,97.00
